Time;durP1;ratioP1;P1;durP2;ratioP2;P2;SDS_P1;SDS_P2;PMS_P1;PMS_P2;Temp;Humidity;BMP_temperature;BMP_pressure;BME280_temperature;BME280_humidity;BME280_pressure;Samples;Min_cycle;Max_cycle;Signal;HPM_P1;HPM_P2
2023/03/27 00:00:00;;;;;;;1.80;1.30;;;20.30;66.50;;;;;;4996078;28;20917;-83
2023/03/27 00:02:27;;;;;;;2.23;1.20;;;20.30;66.50;;;;;;4996314;28;20448;-96
2023/03/27 00:04:54;;;;;;;1.20;0.90;;;20.30;66.50;;;;;;4996232;28;20476;-95
2023/03/27 00:07:21;;;;;;;1.43;1.17;;;20.30;66.50;;;;;;4996326;28;21016;-95
2023/03/27 00:09:49;;;;;;;1.60;1.00;;;20.30;66.50;;;;;;4996181;28;20452;-91
2023/03/27 00:12:16;;;;;;;1.20;1.10;;;20.30;66.50;;;;;;4995685;28;20475;-96
2023/03/27 00:14:44;;;;;;;1.30;1.20;;;20.30;66.50;;;;;;4995928;28;20464;-95
2023/03/27 00:17:12;;;;;;;1.83;1.43;;;20.30;66.50;;;;;;4996067;28;20448;-95
2023/03/27 00:19:38;;;;;;;1.60;1.20;;;20.30;66.40;;;;;;4995765;28;21001;-95
2023/03/27 00:22:05;;;;;;;2.00;1.13;;;20.30;66.40;;;;;;4995784;28;20448;-95
2023/03/27 00:24:33;;;;;;;2.57;1.63;;;20.30;66.40;;;;;;4995719;28;20440;-94
2023/03/27 00:27:01;;;;;;;1.80;1.10;;;20.30;66.40;;;;;;4995918;28;20451;-94
2023/03/27 00:29:28;;;;;;;1.63;1.17;;;20.30;66.40;;;;;;4996289;28;20556;-93
2023/03/27 00:31:55;;;;;;;1.67;1.13;;;20.40;66.50;;;;;;4995752;28;20466;-84
2023/03/27 00:34:22;;;;;;;1.17;1.00;;;20.40;66.50;;;;;;4995867;28;20952;-95
2023/03/27 00:36:50;;;;;;;1.53;1.30;;;20.30;67.20;;;;;;4995706;28;20783;-85
2023/03/27 00:39:18;;;;;;;3.40;1.40;;;20.30;66.30;;;;;;4995892;28;20491;-95
2023/03/27 00:41:45;;;;;;;1.83;1.10;;;20.30;66.40;;;;;;4996052;28;20498;-94
2023/03/27 00:44:26;;;;;;;1.50;1.40;;;20.40;66.50;;;;;;4995710;28;20859;-84
2023/03/27 00:46:55;;;;;;;1.90;1.37;;;20.20;66.20;;;;;;4995393;28;20447;-95
2023/03/27 00:49:25;;;;;;;1.93;1.50;;;20.20;66.20;;;;;;4995295;28;20555;-86
2023/03/27 00:51:53;;;;;;;2.43;1.33;;;20.20;66.20;;;;;;4995371;28;20446;-86
2023/03/27 00:54:25;;;;;;;1.53;1.10;;;20.20;66.20;;;;;;4995682;28;20446;-94
2023/03/27 00:56:54;;;;;;;1.30;1.00;;;20.20;66.20;;;;;;4995350;28;20514;-95
2023/03/27 00:59:23;;;;;;;1.60;1.30;;;20.20;66.20;;;;;;4995132;28;20444;-94
2023/03/27 01:01:52;;;;;;;1.77;0.97;;;20.20;66.20;;;;;;4995222;28;20485;-83
2023/03/27 01:04:20;;;;;;;1.50;1.20;;;20.20;66.20;;;;;;4995294;28;20453;-86
2023/03/27 01:06:47;;;;;;;1.30;1.20;;;20.20;66.20;;;;;;4995102;28;20441;-94
2023/03/27 01:09:14;;;;;;;1.80;1.37;;;20.20;66.20;;;;;;4995128;28;20443;-83
2023/03/27 01:11:51;;;;;;;1.60;1.10;;;20.10;66.10;;;;;;4995346;28;20530;-94
2023/03/27 01:14:28;;;;;;;2.73;1.50;;;20.20;66.20;;;;;;4994958;28;20473;-95
2023/03/27 01:17:09;;;;;;;1.83;1.10;;;20.20;66.20;;;;;;4994923;28;20444;-84
2023/03/27 01:20:05;;;;;;;1.20;1.00;;;20.10;66.10;;;;;;4995218;28;20436;-96
2023/03/27 01:22:48;;;;;;;1.73;1.00;;;20.20;66.20;;;;;;4995248;28;20439;-95
2023/03/27 01:25:37;;;;;;;1.30;1.20;;;20.10;66.10;;;;;;4995043;28;20440;-96
2023/03/27 01:28:27;;;;;;;1.90;1.20;;;20.10;66.00;;;;;;4994918;28;20490;-91
2023/03/27 01:31:01;;;;;;;2.23;1.20;;;20.10;66.00;;;;;;4995289;28;20440;-84
2023/03/27 01:33:56;;;;;;;1.20;1.00;;;20.10;66.10;;;;;;4994586;28;20443;-96
2023/03/27 01:36:39;;;;;;;1.43;1.30;;;20.10;66.10;;;;;;4994777;28;20447;-86
2023/03/27 01:39:34;;;;;;;1.30;0.90;;;20.10;66.10;;;;;;4994753;28;21001;-96
2023/03/27 01:42:08;;;;;;;2.67;1.30;;;20.10;66.10;;;;;;4992157;28;20487;-85
2023/03/27 01:44:45;;;;;;;1.40;1.10;;;20.10;66.10;;;;;;4994621;28;20460;-96
2023/03/27 01:47:21;;;;;;;1.40;1.10;;;20.10;66.10;;;;;;4995089;28;20474;-96
2023/03/27 01:49:53;;;;;;;2.47;1.20;;;20.30;66.30;;;;;;4994450;28;20486;-95
2023/03/27 01:52:25;;;;;;;1.50;1.00;;;20.10;66.90;;;;;;4994472;28;20513;-85
2023/03/27 01:55:02;;;;;;;2.23;1.20;;;20.10;66.10;;;;;;4994638;28;20448;-95
2023/03/27 01:57:33;;;;;;;1.63;1.20;;;20.10;66.10;;;;;;4994810;28;20443;-94
2023/03/27 02:00:11;;;;;;;1.70;1.20;;;20.10;66.10;;;;;;4994568;28;20436;-84
2023/03/27 02:02:41;;;;;;;2.53;1.27;;;20.10;66.00;;;;;;4994827;28;20454;-85
2023/03/27 02:05:14;;;;;;;1.40;1.10;;;20.10;66.00;;;;;;4994687;28;20494;-94
2023/03/27 02:07:46;;;;;;;1.27;1.03;;;20.10;66.00;;;;;;4994373;28;20463;-89
2023/03/27 02:10:19;;;;;;;1.97;1.20;;;20.10;66.00;;;;;;4994383;28;20467;-95
2023/03/27 02:12:50;;;;;;;1.97;1.03;;;20.10;66.00;;;;;;4994429;28;20482;-96
2023/03/27 02:15:20;;;;;;;1.73;1.20;;;20.20;66.10;;;;;;4994632;28;20440;-89
2023/03/27 02:17:55;;;;;;;2.07;1.20;;;20.10;66.00;;;;;;4994682;28;20432;-95
2023/03/27 02:20:23;;;;;;;1.40;1.20;;;20.00;65.90;;;;;;4994270;28;20499;-91
2023/03/27 02:22:52;;;;;;;2.37;1.33;;;20.10;66.10;;;;;;4994342;28;20458;-88
2023/03/27 02:25:29;;;;;;;1.20;1.00;;;20.10;66.00;;;;;;4994393;28;20445;-96
2023/03/27 02:28:12;;;;;;;1.13;0.93;;;20.00;65.90;;;;;;4994662;28;20817;-96
2023/03/27 02:30:45;;;;;;;1.77;1.20;;;20.00;65.90;;;;;;4994414;28;20458;-87
2023/03/27 02:33:17;;;;;;;1.57;1.20;;;20.00;65.90;;;;;;4993757;28;20527;-93
2023/03/27 02:35:51;;;;;;;2.17;1.20;;;20.00;65.90;;;;;;4993546;28;20451;-95
2023/03/27 02:38:22;;;;;;;1.60;1.17;;;20.00;65.90;;;;;;4994031;28;20513;-84
2023/03/27 02:41:00;;;;;;;2.77;1.40;;;20.00;65.90;;;;;;4994100;28;20511;-96
2023/03/27 02:43:32;;;;;;;1.43;1.17;;;20.00;65.90;;;;;;4994111;28;20467;-89
2023/03/27 02:46:06;;;;;;;1.20;1.07;;;20.10;66.00;;;;;;4993978;28;20450;-96
2023/03/27 02:48:37;;;;;;;1.20;0.90;;;20.00;65.90;;;;;;4994136;28;20518;-95
2023/03/27 02:51:09;;;;;;;3.53;1.20;;;20.00;65.90;;;;;;4995268;28;20472;-96
2023/03/27 02:53:40;;;;;;;1.43;1.00;;;20.00;65.90;;;;;;4997613;28;20446;-94
2023/03/27 02:56:10;;;;;;;2.53;1.27;;;20.00;65.80;;;;;;4997958;28;20444;-83
2023/03/27 02:58:43;;;;;;;1.60;0.97;;;20.00;65.80;;;;;;4997613;28;20446;-95
2023/03/27 03:01:14;;;;;;;1.43;1.00;;;20.00;65.80;;;;;;4997661;28;20484;-85
2023/03/27 03:03:44;;;;;;;1.40;1.27;;;20.00;65.80;;;;;;4997254;28;20482;-94
2023/03/27 03:06:13;;;;;;;2.00;1.63;;;20.00;65.80;;;;;;4997453;28;20809;-94
2023/03/27 03:08:40;;;;;;;1.37;1.10;;;20.00;65.80;;;;;;4997825;28;20970;-85
2023/03/27 03:11:12;;;;;;;1.20;0.90;;;20.00;65.80;;;;;;4997505;28;20442;-96
2023/03/27 03:13:39;;;;;;;1.30;1.00;;;20.00;65.80;;;;;;4997112;28;20464;-87
2023/03/27 03:16:08;;;;;;;1.83;1.10;;;19.90;65.70;;;;;;4997226;28;21008;-95
2023/03/27 03:18:35;;;;;;;1.40;1.10;;;19.90;65.70;;;;;;4997435;28;20444;-88
2023/03/27 03:21:03;;;;;;;1.80;1.00;;;20.10;66.00;;;;;;4998061;28;20478;-94
2023/03/27 03:23:30;;;;;;;1.20;1.10;;;19.90;65.70;;;;;;4997236;28;20444;-95
2023/03/27 03:25:57;;;;;;;1.40;1.17;;;19.90;65.70;;;;;;4997424;28;20872;-95
2023/03/27 03:28:25;;;;;;;1.60;1.10;;;19.90;65.70;;;;;;4997169;28;20479;-95
2023/03/27 03:30:52;;;;;;;1.20;0.90;;;19.90;65.70;;;;;;4997150;28;20456;-84
2023/03/27 03:33:20;;;;;;;1.50;1.10;;;19.90;65.70;;;;;;4997323;28;20475;-95
2023/03/27 03:35:47;;;;;;;1.80;1.17;;;19.90;65.70;;;;;;4997037;28;20444;-96
2023/03/27 03:38:23;;;;;;;1.27;1.13;;;19.90;65.70;;;;;;4996851;28;20447;-91
2023/03/27 03:40:51;;;;;;;1.50;1.10;;;19.90;65.70;;;;;;4997031;28;20804;-95
2023/03/27 03:43:18;;;;;;;1.40;1.00;;;19.90;65.70;;;;;;4996610;28;20823;-96
2023/03/27 03:45:46;;;;;;;1.20;0.90;;;19.90;65.70;;;;;;4996894;28;20447;-96
2023/03/27 03:48:12;;;;;;;1.50;0.90;;;19.90;65.70;;;;;;4996942;28;20439;-87
2023/03/27 03:50:39;;;;;;;1.97;1.30;;;19.90;65.70;;;;;;4996189;28;21010;-90
2023/03/27 03:53:06;;;;;;;1.43;1.20;;;19.90;65.70;;;;;;4996656;28;20803;-83
2023/03/27 03:55:33;;;;;;;1.20;1.00;;;19.90;65.70;;;;;;4996596;28;20436;-95
2023/03/27 03:58:00;;;;;;;4.80;1.40;;;19.90;65.60;;;;;;4996791;28;20451;-85
2023/03/27 04:00:27;;;;;;;1.43;1.13;;;19.90;65.60;;;;;;4996652;28;20441;-93
2023/03/27 04:02:55;;;;;;;2.13;1.10;;;20.00;65.70;;;;;;4995225;28;20449;-94
2023/03/27 04:05:23;;;;;;;1.30;1.00;;;19.90;65.70;;;;;;4996100;28;20444;-87
2023/03/27 04:07:50;;;;;;;1.30;1.00;;;19.90;65.60;;;;;;4996067;28;20451;-89
2023/03/27 04:10:17;;;;;;;1.20;0.80;;;19.90;65.70;;;;;;4996109;28;20459;-95
2023/03/27 04:12:47;;;;;;;1.40;1.00;;;19.90;65.70;;;;;;4996043;28;20510;-82
2023/03/27 04:15:14;;;;;;;1.83;1.23;;;19.90;65.60;;;;;;4995935;28;20922;-83
2023/03/27 04:17:41;;;;;;;1.20;1.03;;;19.90;65.60;;;;;;4995838;28;20444;-94
2023/03/27 04:20:11;;;;;;;1.60;1.17;;;19.80;65.50;;;;;;4996020;28;20451;-85
2023/03/27 04:22:38;;;;;;;1.13;0.90;;;19.80;65.50;;;;;;4995888;28;20491;-83
2023/03/27 04:25:07;;;;;;;1.97;1.00;;;19.80;65.50;;;;;;4996002;28;20458;-95
2023/03/27 04:27:34;;;;;;;1.83;1.10;;;19.80;65.50;;;;;;4995665;28;20455;-87
2023/03/27 04:30:02;;;;;;;1.20;0.90;;;19.80;65.50;;;;;;4995502;28;20546;-94
2023/03/27 04:32:29;;;;;;;1.40;1.10;;;19.80;65.40;;;;;;4995295;28;20498;-84
2023/03/27 04:34:55;;;;;;;1.27;0.90;;;19.80;65.50;;;;;;4995139;28;20539;-82
2023/03/27 04:37:23;;;;;;;1.47;0.90;;;19.90;65.60;;;;;;4995294;28;20447;-85
2023/03/27 04:39:51;;;;;;;2.67;1.30;;;19.80;65.50;;;;;;4995479;28;20448;-90
2023/03/27 04:42:21;;;;;;;1.13;1.00;;;19.80;65.40;;;;;;4995076;28;20541;-83
2023/03/27 04:44:48;;;;;;;1.17;0.90;;;19.80;65.40;;;;;;4995390;28;20448;-83
2023/03/27 04:47:14;;;;;;;1.27;0.87;;;19.80;65.40;;;;;;4995201;28;20439;-82
2023/03/27 04:49:45;;;;;;;1.40;1.03;;;19.80;65.40;;;;;;4994972;28;20481;-82
2023/03/27 04:52:14;;;;;;;1.67;1.10;;;19.80;65.40;;;;;;4995135;28;20617;-83
2023/03/27 04:54:42;;;;;;;1.80;1.27;;;20.00;65.70;;;;;;4994853;28;20444;-85
2023/03/27 04:57:09;;;;;;;1.47;1.13;;;19.80;65.40;;;;;;4995043;28;20483;-83
2023/03/27 04:59:37;;;;;;;1.47;1.10;;;19.80;65.50;;;;;;4994645;28;20444;-82
2023/03/27 05:02:05;;;;;;;1.20;1.00;;;19.80;65.40;;;;;;4995051;28;20495;-83
2023/03/27 05:04:33;;;;;;;1.20;1.03;;;19.80;65.50;;;;;;4994633;28;20484;-82
2023/03/27 05:07:01;;;;;;;1.73;0.80;;;19.80;65.40;;;;;;5005292;28;20453;-81
2023/03/27 05:09:27;;;;;;;1.83;1.40;;;19.80;65.40;;;;;;5013964;28;20935;-82
2023/03/27 05:11:56;;;;;;;1.87;1.10;;;19.70;65.30;;;;;;5013985;28;20444;-82
2023/03/27 05:14:23;;;;;;;1.23;0.93;;;19.70;65.30;;;;;;5014103;28;20463;-81
2023/03/27 05:16:51;;;;;;;1.17;0.70;;;19.70;65.30;;;;;;5012145;28;20443;-81
2023/03/27 05:19:19;;;;;;;1.60;1.03;;;19.70;65.30;;;;;;4993658;28;20434;-83
2023/03/27 05:21:46;;;;;;;1.30;0.90;;;19.70;65.30;;;;;;4993686;28;20870;-81
2023/03/27 05:24:14;;;;;;;1.47;0.80;;;19.70;65.30;;;;;;4993532;28;20445;-82
2023/03/27 05:26:41;;;;;;;1.30;0.97;;;19.70;65.30;;;;;;4993471;28;20478;-84
2023/03/27 05:29:09;;;;;;;1.50;0.90;;;19.70;65.30;;;;;;4990859;28;20463;-83
2023/03/27 05:31:37;;;;;;;1.70;0.90;;;19.70;65.30;;;;;;4992932;28;20444;-81
2023/03/27 05:34:04;;;;;;;3.07;1.20;;;19.70;65.30;;;;;;4993267;28;20444;-87
2023/03/27 05:36:31;;;;;;;2.83;1.00;;;19.70;64.90;;;;;;4993388;28;20797;-82
2023/03/27 05:38:58;;;;;;;1.20;0.90;;;19.70;65.20;;;;;;4994360;28;20439;-94
2023/03/27 05:41:25;;;;;;;2.23;1.93;;;19.70;65.20;;;;;;4994971;28;20489;-95
2023/03/27 05:43:52;;;;;;;1.10;0.90;;;19.70;65.20;;;;;;4994314;28;20458;-93
2023/03/27 05:46:20;;;;;;;1.53;1.30;;;19.70;65.20;;;;;;4994551;28;20431;-83
2023/03/27 05:48:47;;;;;;;1.97;1.27;;;19.70;65.20;;;;;;4994425;28;20510;-96
2023/03/27 05:51:14;;;;;;;1.60;1.10;;;19.70;65.20;;;;;;4994325;28;20871;-83
2023/03/27 05:53:40;;;;;;;1.33;1.07;;;19.70;66.20;;;;;;4994027;28;20488;-84
2023/03/27 05:56:08;;;;;;;1.70;1.00;;;19.70;65.40;;;;;;4994188;28;20449;-84
2023/03/27 05:58:35;;;;;;;4.13;1.10;;;19.70;65.40;;;;;;4994321;28;20451;-85
2023/03/27 06:01:03;;;;;;;1.77;0.93;;;19.70;65.30;;;;;;4993974;28;20458;-82
2023/03/27 06:03:34;;;;;;;1.60;1.17;;;19.70;65.30;;;;;;4994138;28;20443;-84
2023/03/27 06:06:06;;;;;;;4.40;0.97;;;19.80;65.20;;;;;;4994042;28;20474;-91
2023/03/27 06:08:33;;;;;;;3.00;1.17;;;19.80;65.20;;;;;;4994008;28;20439;-83
2023/03/27 06:11:00;;;;;;;1.20;0.93;;;19.80;65.40;;;;;;4993717;28;20535;-93
2023/03/27 06:13:27;;;;;;;1.87;1.10;;;19.80;65.40;;;;;;4994076;28;20459;-84
2023/03/27 06:15:54;;;;;;;1.70;1.03;;;19.80;65.50;;;;;;4993810;28;20539;-84
2023/03/27 06:18:21;;;;;;;2.60;0.97;;;19.80;65.90;;;;;;4994152;28;20451;-92
2023/03/27 06:20:50;;;;;;;1.10;0.90;;;19.80;66.10;;;;;;4993696;28;20447;-87
2023/03/27 06:23:17;;;;;;;5.53;1.87;;;19.90;66.20;;;;;;4994231;28;20895;-92
2023/03/27 06:25:46;;;;;;;1.60;0.80;;;19.90;66.20;;;;;;4994567;28;20459;-83
2023/03/27 06:28:13;;;;;;;2.60;0.90;;;19.80;66.20;;;;;;4997516;28;20546;-84
2023/03/27 06:30:41;;;;;;;2.30;1.30;;;19.80;66.20;;;;;;4997690;28;20523;-92
2023/03/27 06:33:08;;;;;;;1.50;0.90;;;19.80;66.10;;;;;;4997296;28;20468;-84
2023/03/27 06:35:35;;;;;;;2.63;0.97;;;19.80;66.20;;;;;;4997524;28;20470;-84
2023/03/27 06:38:03;;;;;;;1.50;1.00;;;19.80;65.80;;;;;;4997404;28;20447;-84
2023/03/27 06:40:34;;;;;;;1.57;1.17;;;19.80;65.70;;;;;;4997413;28;20446;-91
2023/03/27 06:43:02;;;;;;;1.60;1.00;;;19.80;65.90;;;;;;4997395;28;20554;-85
2023/03/27 06:45:31;;;;;;;3.10;1.30;;;19.80;66.00;;;;;;4997507;28;20444;-85
2023/03/27 06:48:01;;;;;;;1.87;1.10;;;19.80;66.10;;;;;;4997454;28;20783;-92
2023/03/27 06:50:29;;;;;;;6.63;1.57;;;19.90;66.30;;;;;;4997334;28;20475;-92
2023/03/27 06:52:56;;;;;;;2.77;0.93;;;19.80;66.20;;;;;;4997513;28;20450;-91
2023/03/27 06:55:26;;;;;;;1.73;1.30;;;19.80;66.30;;;;;;4996991;28;20440;-89
2023/03/27 06:57:54;;;;;;;2.40;1.23;;;19.80;66.30;;;;;;4997336;28;20439;-91
2023/03/27 07:00:25;;;;;;;1.53;1.23;;;19.90;66.50;;;;;;4997113;28;20527;-91
2023/03/27 07:02:54;;;;;;;2.67;1.40;;;19.90;66.50;;;;;;4997407;28;20487;-92
2023/03/27 07:05:21;;;;;;;1.60;1.13;;;19.90;66.40;;;;;;4997280;28;20483;-94
2023/03/27 07:07:48;;;;;;;3.27;1.30;;;20.00;66.20;;;;;;4999242;28;20466;-95
2023/03/27 07:10:15;;;;;;;2.70;1.30;;;20.10;66.40;;;;;;5000398;28;20443;-94
2023/03/27 07:12:47;;;;;;;1.50;1.10;;;20.00;66.20;;;;;;5001706;28;20467;-94
2023/03/27 07:15:13;;;;;;;3.13;1.90;;;20.00;66.20;;;;;;4999823;28;20436;-86
2023/03/27 07:17:42;;;;;;;1.70;1.23;;;20.00;66.20;;;;;;4998487;28;20497;-87
2023/03/27 07:20:11;;;;;;;2.30;1.40;;;20.00;66.10;;;;;;4998122;28;20452;-93
2023/03/27 07:22:37;;;;;;;2.13;1.00;;;20.10;65.80;;;;;;4996664;28;20496;-92
2023/03/27 07:25:05;;;;;;;2.80;1.30;;;20.10;65.70;;;;;;4997006;28;20461;-85
2023/03/27 07:27:32;;;;;;;1.50;1.13;;;20.10;65.60;;;;;;4996873;28;20436;-91
2023/03/27 07:30:00;;;;;;;2.40;1.00;;;20.20;65.50;;;;;;4996869;28;20448;-92
2023/03/27 07:32:28;;;;;;;1.50;1.23;;;20.20;65.00;;;;;;4996722;28;20442;-85
2023/03/27 07:34:55;;;;;;;6.23;1.30;;;20.20;65.20;;;;;;4996819;28;20440;-88
2023/03/27 07:37:22;;;;;;;1.73;1.23;;;20.20;65.10;;;;;;4995720;28;20440;-90
2023/03/27 07:39:49;;;;;;;1.90;1.13;;;20.20;65.20;;;;;;4997727;28;20440;-83
2023/03/27 07:42:16;;;;;;;2.43;1.07;;;20.30;65.30;;;;;;4995298;28;20488;-87
2023/03/27 07:44:42;;;;;;;2.80;1.20;;;20.30;65.40;;;;;;4995840;28;20448;-83
2023/03/27 07:47:11;;;;;;;4.40;1.10;;;20.30;65.50;;;;;;4996305;28;20785;-87
2023/03/27 07:49:38;;;;;;;1.97;1.57;;;20.30;65.60;;;;;;4995591;28;20538;-87
2023/03/27 07:52:05;;;;;;;3.40;1.30;;;20.30;65.70;;;;;;4996034;28;20444;-83
2023/03/27 07:54:32;;;;;;;1.40;1.30;;;20.30;65.70;;;;;;4995543;28;20452;-89
2023/03/27 07:56:58;;;;;;;1.50;1.30;;;20.30;65.80;;;;;;4994984;28;20452;-82
2023/03/27 07:59:26;;;;;;;1.40;1.00;;;20.30;65.80;;;;;;4995685;28;20947;-83
2023/03/27 08:01:54;;;;;;;1.70;1.20;;;20.40;65.90;;;;;;4995781;28;20476;-81
2023/03/27 08:04:22;;;;;;;1.80;1.10;;;20.40;66.10;;;;;;4995732;28;20448;-84
2023/03/27 08:06:50;;;;;;;1.40;0.93;;;20.40;65.20;;;;;;4998278;28;20790;-84
2023/03/27 08:09:17;;;;;;;1.60;1.30;;;20.40;64.70;;;;;;4995882;28;20443;-83
2023/03/27 08:11:44;;;;;;;1.60;0.90;;;20.50;65.70;;;;;;4995320;28;20440;-84
2023/03/27 08:14:10;;;;;;;3.90;1.10;;;20.50;65.80;;;;;;4994929;28;20475;-84
2023/03/27 08:16:38;;;;;;;2.70;1.03;;;20.50;66.10;;;;;;4995408;28;20448;-85
2023/03/27 08:19:06;;;;;;;2.97;1.13;;;20.50;66.10;;;;;;4995619;28;20447;-90
2023/03/27 08:21:37;;;;;;;5.67;3.90;;;20.50;65.80;;;;;;4992533;28;20974;-91
2023/03/27 09:17:56;;;;;;;305.75;158.85;;;21.00;69.20;;;;;;4858702;29;20435;-85
2023/03/27 09:20:31;;;;;;;113.65;60.05;;;21.20;66.90;;;;;;4858753;29;20483;-82
2023/03/27 09:23:04;;;;;;;150.25;74.45;;;21.10;62.90;;;;;;4859171;29;20466;-82
2023/03/27 09:25:36;;;;;;;186.10;85.83;;;21.10;62.30;;;;;;4859458;29;20229;-83
2023/03/27 09:28:11;;;;;;;191.70;91.70;;;21.00;62.40;;;;;;4954809;28;20441;-83
2023/03/27 09:30:38;;;;;;;178.40;89.20;;;21.00;63.10;;;;;;4974888;28;20793;-82
2023/03/27 09:33:06;;;;;;;211.20;94.80;;;21.00;62.40;;;;;;4974809;28;20792;-83
2023/03/27 09:35:37;;;;;;;195.17;98.20;;;21.00;62.20;;;;;;4974635;28;20445;-82
2023/03/27 09:38:11;;;;;;;206.87;95.23;;;20.90;62.70;;;;;;4975049;28;20544;-82
2023/03/27 09:40:47;;;;;;;182.57;85.67;;;20.90;62.40;;;;;;4974340;28;20929;-82
2023/03/27 09:43:18;;;;;;;171.80;81.47;;;20.90;61.40;;;;;;4974602;28;20531;-81
2023/03/27 09:45:47;;;;;;;201.10;94.60;;;20.80;61.30;;;;;;4974908;28;20455;-81
2023/03/27 09:48:22;;;;;;;185.57;89.43;;;20.80;61.40;;;;;;4974775;28;20449;-81
2023/03/27 09:50:50;;;;;;;170.83;82.40;;;20.80;62.50;;;;;;4974814;28;20523;-83
2023/03/27 09:53:20;;;;;;;157.57;74.47;;;20.80;61.70;;;;;;4974514;28;20441;-86
2023/03/27 09:55:51;;;;;;;178.10;86.23;;;20.80;61.50;;;;;;4974725;28;20437;-85
2023/03/27 09:58:30;;;;;;;173.73;81.97;;;20.80;61.90;;;;;;4974855;28;20861;-86
2023/03/27 10:01:15;;;;;;;151.27;77.50;;;20.80;62.00;;;;;;4974156;28;20929;-86
2023/03/27 10:03:48;;;;;;;129.33;64.60;;;20.80;61.70;;;;;;4974798;28;20484;-82
2023/03/27 10:06:26;;;;;;;126.37;59.67;;;20.70;61.00;;;;;;4974606;28;20437;-81
2023/03/27 10:08:54;;;;;;;139.43;65.80;;;20.70;60.40;;;;;;4974317;28;20436;-83
2023/03/27 10:11:26;;;;;;;130.87;66.10;;;20.70;61.20;;;;;;4974126;28;20444;-82
2023/03/27 10:14:04;;;;;;;157.83;76.43;;;20.80;61.30;;;;;;4973154;28;20496;-89
2023/03/27 10:16:39;;;;;;;163.10;79.47;;;20.80;62.90;;;;;;4991350;28;20553;-90
2023/03/27 10:19:19;;;;;;;151.90;73.47;;;20.90;63.70;;;;;;4993655;28;20443;-92
2023/03/27 10:28:17;;;;;;;136.77;68.00;;;20.90;63.90;;;;;;4939933;29;20443;-87
2023/03/27 10:30:45;;;;;;;150.37;72.17;;;21.00;64.10;;;;;;4954820;29;20453;-91
2023/03/27 10:33:12;;;;;;;135.73;66.90;;;21.20;64.20;;;;;;4953557;29;20434;-92
2023/03/27 15:52:47;;;;;;;11.57;8.07;;;21.60;65.20;;;;;;5017522;23;20526;-96
2023/03/27 15:55:36;;;;;;;13.83;8.37;;;21.60;65.30;;;;;;4999812;28;20939;-91
2023/03/27 15:58:20;;;;;;;9.37;6.87;;;21.60;65.20;;;;;;4998563;28;20761;-95
2023/03/27 16:00:49;;;;;;;14.20;8.03;;;21.60;65.20;;;;;;4998023;28;20456;-95
2023/03/27 16:03:21;;;;;;;14.23;8.73;;;21.60;65.10;;;;;;4998683;28;20480;-92
2023/03/27 16:05:59;;;;;;;12.00;8.23;;;21.60;65.10;;;;;;4998202;28;20543;-95
2023/03/27 16:08:50;;;;;;;11.07;7.60;;;21.60;65.10;;;;;;4998320;28;20534;-93
2023/03/27 16:11:33;;;;;;;12.83;7.03;;;21.50;64.90;;;;;;5020669;28;20430;-90
2023/03/27 16:14:01;;;;;;;6.73;5.07;;;21.50;64.80;;;;;;5011573;28;20484;-86
2023/03/27 16:16:29;;;;;;;10.80;7.90;;;21.50;62.00;;;;;;5011231;28;20544;-86
2023/03/27 16:18:58;;;;;;;9.93;7.70;;;21.40;63.30;;;;;;4996320;28;20804;-88
2023/03/27 16:21:27;;;;;;;11.97;8.33;;;21.60;64.40;;;;;;4996412;28;20454;-87
2023/03/27 16:23:55;;;;;;;9.97;6.50;;;21.40;64.50;;;;;;4997073;28;20818;-91
2023/03/27 16:29:06;;;;;;;8.97;6.40;;;21.40;64.50;;;;;;4995873;28;20771;-86
2023/03/27 16:31:34;;;;;;;11.70;7.30;;;21.40;64.50;;;;;;4978502;28;20471;-86
2023/03/27 16:34:01;;;;;;;8.30;6.70;;;21.40;64.40;;;;;;4995667;28;20444;-92
2023/03/27 16:36:30;;;;;;;9.47;6.27;;;21.40;64.70;;;;;;4995612;28;20433;-93
2023/03/27 16:38:58;;;;;;;8.53;5.77;;;21.40;64.70;;;;;;5018122;28;20464;-87
2023/03/27 16:41:25;;;;;;;9.10;6.13;;;21.40;64.80;;;;;;5016720;28;20491;-86
2023/03/27 16:43:52;;;;;;;8.93;5.70;;;21.40;64.60;;;;;;4995910;28;20495;-89
2023/03/27 16:46:23;;;;;;;15.00;6.30;;;21.40;63.50;;;;;;4978286;28;20453;-89
2023/03/27 18:02:18;;;;;;;23.42;12.13;;;20.90;63.90;;;;;;4993522;28;20431;-87
2023/03/27 18:05:16;;;;;;;15.40;9.20;;;21.10;64.40;;;;;;4976088;28;20225;-88
2023/03/27 18:07:43;;;;;;;20.80;9.50;;;21.00;62.70;;;;;;4975107;28;20449;-88
2023/03/27 18:10:15;;;;;;;18.77;8.10;;;21.00;63.30;;;;;;4975438;28;20461;-87
2023/03/27 18:12:42;;;;;;;16.77;8.07;;;21.10;63.40;;;;;;4977192;28;20480;-87
2023/03/27 18:15:10;;;;;;;19.83;7.73;;;21.10;63.90;;;;;;4976532;28;20445;-87
2023/03/27 18:17:37;;;;;;;11.10;6.30;;;21.10;63.10;;;;;;4975355;28;20449;-81
2023/03/27 18:20:10;;;;;;;12.07;7.03;;;21.10;63.90;;;;;;4974980;28;20449;-86
2023/03/27 18:22:39;;;;;;;14.53;6.33;;;21.00;61.70;;;;;;4980663;28;20562;-87
2023/03/27 18:25:08;;;;;;;15.50;7.40;;;21.00;62.90;;;;;;5000115;23;20475;-89
2023/03/27 18:30:16;;;;;;;12.43;7.90;;;21.00;63.30;;;;;;5037378;23;20506;-86
2023/03/27 18:32:45;;;;;;;14.60;6.23;;;21.00;64.10;;;;;;5004098;28;20436;-87
2023/03/27 18:35:24;;;;;;;11.73;6.00;;;21.00;64.30;;;;;;5006024;28;20547;-88
2023/03/27 18:38:03;;;;;;;19.93;6.47;;;21.20;64.90;;;;;;5003968;28;20471;-89
2023/03/27 18:40:31;;;;;;;13.13;7.33;;;21.00;64.70;;;;;;5003178;28;20440;-88
2023/03/27 18:42:58;;;;;;;15.37;6.40;;;21.20;64.80;;;;;;5003399;28;20492;-88
2023/03/27 18:45:28;;;;;;;10.07;6.30;;;21.00;64.70;;;;;;5004812;28;20531;-88
2023/03/27 18:47:54;;;;;;;16.30;7.20;;;21.00;64.60;;;;;;5005440;28;20439;-86
2023/03/27 18:50:21;;;;;;;10.67;6.40;;;21.20;64.50;;;;;;5004039;28;20439;-87
2023/03/27 18:52:48;;;;;;;15.83;5.77;;;21.00;64.40;;;;;;5007562;28;20864;-87
2023/03/27 18:55:21;;;;;;;15.63;5.43;;;21.00;64.40;;;;;;5005675;28;20447;-86
2023/03/27 18:57:48;;;;;;;13.97;5.77;;;21.00;64.10;;;;;;5006543;28;20413;-88
2023/03/27 19:02:56;;;;;;;13.43;5.97;;;21.00;64.00;;;;;;5003068;28;20432;-93
2023/03/27 19:05:24;;;;;;;9.60;4.90;;;21.10;63.80;;;;;;5000169;28;20556;-86
2023/03/27 19:07:58;;;;;;;11.33;5.37;;;21.10;64.00;;;;;;5002435;28;20535;-85
2023/03/27 19:10:28;;;;;;;15.90;4.80;;;21.00;63.30;;;;;;5032163;23;20512;-87
2023/03/27 19:12:55;;;;;;;11.70;5.20;;;21.10;64.00;;;;;;5005914;28;20487;-86
2023/03/27 19:15:25;;;;;;;11.20;5.33;;;21.00;64.00;;;;;;5013871;23;20476;-87
2023/03/27 19:17:57;;;;;;;11.90;5.87;;;21.00;63.90;;;;;;5008271;28;20502;-89
2023/03/27 19:20:27;;;;;;;12.47;5.33;;;21.00;63.90;;;;;;5021692;28;20452;-88
2023/03/27 19:22:54;;;;;;;8.27;4.00;;;21.00;63.90;;;;;;5018646;28;20500;-87
2023/03/27 19:25:26;;;;;;;14.03;5.30;;;21.00;64.00;;;;;;5003323;28;20495;-88
2023/03/27 19:27:53;;;;;;;16.03;5.50;;;21.00;64.10;;;;;;5003197;28;20448;-88
2023/03/27 19:30:20;;;;;;;12.17;6.40;;;21.00;64.00;;;;;;5003946;28;20503;-87
2023/03/27 19:32:50;;;;;;;8.30;4.67;;;21.00;64.00;;;;;;4986645;28;20420;-87
2023/03/27 19:35:18;;;;;;;10.77;4.63;;;21.00;64.10;;;;;;5002252;28;20609;-86
2023/03/27 19:37:49;;;;;;;8.93;5.03;;;21.00;64.10;;;;;;4998661;28;20455;-86
2023/03/27 19:40:16;;;;;;;6.90;5.00;;;21.00;64.30;;;;;;5014228;23;20496;-86
2023/03/27 19:42:44;;;;;;;8.03;5.40;;;21.00;64.10;;;;;;5003977;28;20471;-87
2023/03/27 19:45:11;;;;;;;12.43;4.93;;;21.00;64.20;;;;;;5005708;28;20591;-86
2023/03/27 19:47:40;;;;;;;12.63;6.60;;;21.00;64.20;;;;;;5002908;28;20466;-87
2023/03/27 19:50:09;;;;;;;17.73;6.27;;;21.00;62.80;;;;;;5001446;28;20827;-87
2023/03/27 19:52:37;;;;;;;9.17;4.70;;;21.00;63.30;;;;;;5003102;28;20452;-89
2023/03/27 19:55:08;;;;;;;8.90;5.10;;;21.10;63.80;;;;;;5003059;28;20498;-88
2023/03/27 19:57:34;;;;;;;9.10;5.10;;;21.00;63.30;;;;;;4999264;28;20440;-87
2023/03/27 20:00:11;;;;;;;12.80;5.77;;;21.00;63.60;;;;;;5035392;23;20502;-89
2023/03/27 20:02:38;;;;;;;6.87;4.10;;;21.00;62.70;;;;;;5001705;28;20535;-87
2023/03/27 20:05:07;;;;;;;10.43;5.20;;;21.00;62.40;;;;;;5001125;28;20510;-86
2023/03/27 20:07:41;;;;;;;12.20;5.20;;;21.00;62.90;;;;;;5001279;28;20458;-90
2023/03/27 20:10:09;;;;;;;12.07;4.83;;;21.00;63.20;;;;;;5001018;28;20933;-86
2023/03/27 20:12:37;;;;;;;8.50;4.90;;;21.00;63.30;;;;;;5001846;28;20462;-87
2023/03/27 20:15:06;;;;;;;6.63;4.00;;;21.00;63.50;;;;;;5003165;28;20836;-86
2023/03/27 20:17:36;;;;;;;10.57;5.20;;;21.00;63.50;;;;;;5001771;28;20441;-86
2023/03/27 20:20:09;;;;;;;7.40;4.77;;;21.00;63.70;;;;;;5002994;28;20459;-86
2023/03/27 20:22:35;;;;;;;8.07;3.80;;;21.00;63.50;;;;;;5002162;28;20416;-86
2023/03/27 20:25:06;;;;;;;11.30;4.47;;;21.00;63.80;;;;;;5001295;28;20488;-86
2023/03/27 20:27:40;;;;;;;8.43;4.40;;;21.00;63.80;;;;;;4999998;28;20455;-86
2023/03/27 20:30:18;;;;;;;12.63;5.57;;;21.00;63.60;;;;;;5000007;28;20480;-86
2023/03/27 20:32:45;;;;;;;8.70;4.33;;;21.00;63.70;;;;;;5000019;28;20444;-86
2023/03/27 20:35:12;;;;;;;7.00;4.40;;;21.00;63.60;;;;;;5001768;28;20803;-86